Tiempo atmosférico en la estación meteorológica de La Aldea De San Nicolas, Las Palmas (13 m.)



Fecha
DESCASC
Temp. máxima en grados centígrados (hora)
DESCASC
Temp. mínima en grados centígrados (hora)
DESCASC
Temp. media en grados centígrados
DESCASC
Racha de viento máxima en m/sg (hora)
DESCASC
Velocidad máxima media en intervalos de 10 minutos(hora)
DESCASC
Precipitaciones diarias en mm
DESCASC
Precipitaciones de 00:00 a 06:00 en mm
DESCASC
Precipitaciones de 06:00 a 12:00 en mm
DESCASC
Precipitaciones de 12:00 a 18:00 en mm
DESCASC
Precipitaciones de 18:00 a 24:00 en mm
DESCASC

Gráficas

Temp. máximas Temp. mínimas Temp. medias Precipitaciones Rachas de viento máximas Velocidades máximas media en intervalos de 10 minutos

Datos horarios

Fecha y hora oficial Temperatura (ºC) Velocidad del viento (km/h) Dirección del viento Racha (km/h) Dirección de racha Precipitación (mm) Presión (hPa) Tendencia (hPa) Humedad (%)
2019-08-17 23:00:00 24.8 30 Nordeste 45 Nordeste 0 1010.7 1.1 67
2019-08-17 22:00:00 25 27 Nordeste 53 Nordeste 0 1010.4 0.9 65
2019-08-17 21:00:00 25.6 29 Nordeste 57 Nordeste 0 1009.9 0.8 63
2019-08-17 20:00:00 26.1 31 Nordeste 52 Nordeste 0 1009.6 0.1 63
2019-08-17 19:00:00 26.5 33 Nordeste 64 Nordeste 0 1009.5 0.1 65
2019-08-17 18:00:00 28.2 38 Nordeste 59 Nordeste 0 1009.1 -0.4 59
2019-08-17 17:00:00 28.1 39 Nordeste 63 Nordeste 0 1009.5 0.2 60
2019-08-17 16:00:00 28.5 37 Nordeste 63 Nordeste 0 1009.4 0.3 60
2019-08-17 15:00:00 29.5 38 Nordeste 69 Norte 0 1009.5 0 56
2019-08-17 14:00:00 28.1 40 Nordeste 72 Norte 0 1009.3 -0.2 61
2019-08-17 13:00:00 27.5 38 Norte 72 Norte 0 1009.1 -0.6 61
2019-08-17 12:00:00 30.2 30 Nordeste 49 Nordeste 0 1009.5 -0.2 50
2019-08-17 11:00:00 28.8 25 Nordeste 42 Nordeste 0 1009.5 -0.2 54
2019-08-17 10:00:00 27.5 12 Este 39 Nordeste 0 1009.7 0.3 55
2019-08-17 09:00:00 24.7 22 Nordeste 38 Nordeste 0 1009.7 0.3 67
2019-08-17 08:00:00 22.7 9 Este 31 Nordeste 0 1009.7 0.3 73
2019-08-17 07:00:00 22.3 7 Este 32 Nordeste 0 1009.4 -0.4 73
2019-08-17 06:00:00 22.4 8 Este 37 Nordeste 0 1009.4 -0.6 73
2019-08-17 05:00:00 23.9 4 Sudoeste 36 Nordeste 0 1009.4 -1.2 71
2019-08-17 04:00:00 24.3 10 Nordeste 44 Nordeste 0 1009.8 -1.4 69
2019-08-17 03:00:00 24.2 10 Sudeste 37 Nordeste 0 1010 -1.7 71
2019-08-17 02:00:00 24.2 26 Nordeste 45 Nordeste 0 1010.6 -1 72
2019-08-17 01:00:00 24.5 20 Nordeste 46 Nordeste 0 1011.2 -0.1 69
2019-08-17 00:00:00 24.2 20 Nordeste 46 Nordeste 0 1011.7 0.6 73
2019-08-16 23:00:00 24.1 27 Nordeste 50 Nordeste 0 1011.6 0.9 77
2019-08-16 22:00:00 24.1 28 Nordeste 49 Nordeste 0 1011.3 1 76
2019-08-16 21:00:00 23.9 27 Norte 58 Norte 0 1011.1 0.7 80
2019-08-16 20:00:00 24.9 32 Nordeste 57 Nordeste 0 1010.7 0 75
2019-08-16 19:00:00 25.4 33 Nordeste 63 Norte 0 1010.3 -0.7 74
2019-08-16 18:00:00 26.2 35 Nordeste 60 Norte 0 1010.4 -0.7 71
2019-08-16 17:00:00 26.9 28 Nordeste 54 Norte 0 1010.7 -0.6 68
2019-08-16 16:00:00 27.3 30 Nordeste 56 Norte 0 1011 -0.8 67
2019-08-16 15:00:00 27.1 31 Norte 59 Norte 0 1011.1 -1.1 68
2019-08-16 14:00:00 26.9 33 Nordeste 64 Norte 0 1011.3 -1 68
2019-08-16 13:00:00 26.7 30 Nordeste 58 Norte 0 1011.8 -0.6 68
2019-08-16 12:00:00 25.8 33 Norte 60 Norte 0 1012.2 -0.1 69
2019-08-16 11:00:00 25.3 27 Nordeste 57 Norte 0 1012.3 0.2 70
2019-08-16 10:00:00 23.8 26 Nordeste 53 Norte 0 1012.4 0.3 76
2019-08-16 09:00:00 22.9 27 Nordeste 49 Norte 0 1012.3 0.5 77
2019-08-16 08:00:00 22.3 22 Nordeste 43 Norte 0 1012.1 0.4 81
2019-08-16 07:00:00 21.7 18 Nordeste 38 Nordeste 0 1012.1 -0.1 83
2019-08-16 06:00:00 22.4 23 Nordeste 49 Norte 0 1011.8 -0.8 80
2019-08-16 05:00:00 22.4 24 Nordeste 48 Norte 0 1011.7 -1.4 80
2019-08-16 04:00:00 22.1 13 Este 38 Nordeste 0 1012.2 -1.1 79
2019-08-16 03:00:00 22.6 20 Nordeste 48 Norte 0 1012.6 -1.2 78
2019-08-16 02:00:00 22.7 23 Nordeste 49 Norte 0 1013.1 -0.8 79
2019-08-16 01:00:00 22.8 22 Nordeste 39 Norte 0 1013.3 -0.5 78
2019-08-16 00:00:00 22.8 23 Nordeste 54 Nordeste 0 1013.8 0.7 78
2019-08-15 23:00:00 23 34 Nordeste 57 Nordeste 0 1013.9 1 78
2019-08-15 22:00:00 23.1 37 Nordeste 68 Nordeste 0 1013.8 0.6 79
2019-08-15 21:00:00 23.5 34 Nordeste 63 Nordeste 0 1013.1 -0.2 77
2019-08-15 20:00:00 24.2 35 Nordeste 69 Nordeste 0 1012.9 -0.4 71
2019-08-15 19:00:00 25.1 38 Nordeste 67 Nordeste 0 1013.2 -0.4 67
2019-08-15 18:00:00 25.8 41 Nordeste 72 Nordeste 0 1013.3 -0.8 65
2019-08-15 17:00:00 26.3 40 Nordeste 71 Nordeste 0 1013.3 -1.3 61
2019-08-15 16:00:00 26.4 38 Nordeste 66 Nordeste 0 1013.6 -1.4 63
2019-08-15 15:00:00 26.1 38 Nordeste 72 Nordeste 0 1014.1 -1.3 62
2019-08-15 14:00:00 26.6 38 Nordeste 71 Nordeste 0 1014.6 -0.8 63
2019-08-15 13:00:00 25.5 40 Nordeste 67 Nordeste 0 1015 -0.1 66
2019-08-15 12:00:00 25 41 Nordeste 64 Nordeste 0 1015.4 0.4 69
2019-08-15 11:00:00 24.4 35 Nordeste 57 Nordeste 0 1015.4 0.6 70
2019-08-15 10:00:00 23.7 29 Nordeste 50 Nordeste 0 1015.1 0.4 71
2019-08-15 09:00:00 21.9 10 Este 43 Nordeste 0 1015 0.2 71
2019-08-15 08:00:00 21.3 22 Nordeste 48 Nordeste 0 1014.8 -0.1 78
2019-08-15 07:00:00 19.7 13 Sudeste 41 Nordeste 0 1014.7 -0.4 76
2019-08-15 06:00:00 20.1 13 Este 55 Nordeste 0 1014.8 -0.7 75
2019-08-15 05:00:00 21.6 30 Nordeste 52 Nordeste 0 1014.9 -0.9 73
2019-08-15 04:00:00 21.6 27 Nordeste 51 Nordeste 0 1015.1 -1 74
2019-08-15 03:00:00 21.8 30 Nordeste 55 Nordeste 0 1015.5 -0.8 74
2019-08-15 02:00:00 22 31 Nordeste 55 Nordeste 0 1015.8 -0.5 74
2019-08-15 01:00:00 22.2 32 Nordeste 54 Nordeste 0 1016.1 0.4 72
2019-08-15 00:00:00 22.1 33 Nordeste 57 Nordeste 0 1016.3 1.1 75
2019-08-14 23:00:00 22.3 30 Nordeste 60 Nordeste 0 1016.3 1.5 76
2019-08-14 22:00:00 22.4 32 Nordeste 53 Este 0 1015.7 0.8 75
2019-08-14 21:00:00 22.7 37 Nordeste 66 Nordeste 0 1015.2 -0.1 75
2019-08-14 20:00:00 23.7 36 Nordeste 64 Norte 0 1014.8 -0.7 71
2019-08-14 19:00:00 24.7 37 Nordeste 70 Nordeste 0 1014.9 -0.5 66
2019-08-14 18:00:00 25.6 33 Nordeste 63 Nordeste 0 1015.3 -0.6 63
2019-08-14 17:00:00 25.6 31 Norte 59 Nordeste 0 1015.5 -0.7 64
2019-08-14 16:00:00 25.8 33 Norte 62 Nordeste 0 1015.4 -1.3 62
2019-08-14 15:00:00 26.3 31 Nordeste 60 Nordeste 0 1015.9 -1 60
2019-08-14 14:00:00 25.1 34 Norte 63 Nordeste 0 1016.2 -0.6 63
2019-08-14 13:00:00 25.5 35 Nordeste 62 Nordeste 0 1016.7 0.3 60
2019-08-14 12:00:00 25.2 32 Nordeste 59 Nordeste 0 1016.9 0.8 60
2019-08-14 11:00:00 24.2 30 Nordeste 64 Nordeste 0 1016.8 1.1 64
2019-08-14 10:00:00 23.2 29 Nordeste 57 Nordeste 0 1016.4 0.7 68
2019-08-14 09:00:00 22.3 30 Nordeste 54 Nordeste 0 1016.1 0.8 67
2019-08-14 08:00:00 21.4 28 Nordeste 57 Nordeste 0 1015.7 0.5 73
2019-08-14 07:00:00 21.3 28 Nordeste 51 Este 0 1015.7 0.2 72
2019-08-14 06:00:00 21.5 33 Nordeste 63 Nordeste 0 1015.3 -0.8 70
2019-08-14 05:00:00 21.4 30 Nordeste 62 Nordeste 0 1015.2 -1.3 71
2019-08-14 04:00:00 21.5 36 Nordeste 64 Nordeste 0 1015.5 -1.4 70
2019-08-14 03:00:00 21.7 37 Nordeste 60 Nordeste 0 1016.1 -0.6 69
2019-08-14 02:00:00 21.7 31 Nordeste 71 Nordeste 0 1016.5 -0.1 69
2019-08-14 01:00:00 22 26 Nordeste 63 Este 0 1016.9 0.7 68
2019-08-14 00:00:00 21.9 26 Nordeste 63 Nordeste 0 1016.7 0.8 71
2019-08-13 23:00:00 22.2 42 Nordeste 76 Nordeste 0 1016.6 1.3 68
2019-08-13 22:00:00 22.3 45 Nordeste 67 Nordeste 0 1016.2 1.1 65
2019-08-13 21:00:00 22.8 36 Nordeste 69 Nordeste 0 1015.9 1 66
2019-08-13 20:00:00 24.1 35 Nordeste 86 Este 0 1015.3 0 61
2019-08-13 19:00:00 25 30 Este 88 Este 0 1015.1 0.2 60
2019-08-13 18:00:00 26 30 Este 87 Nordeste 0 1014.9 -1.1 54
2019-08-13 17:00:00 26.1 28 Nordeste 86 Este 0 1015.3 -1 56
2019-08-13 16:00:00 27.2 35 Este 77 Este 0 1014.9 -1.4 52
2019-08-13 15:00:00 26.4 35 Nordeste 81 Este 0 1016 -0.6 55
2019-08-13 14:00:00 25.6 36 Nordeste 75 Nordeste 0 1016.3 -0.2 58
2019-08-13 13:00:00 25.2 43 Nordeste 73 Nordeste 0 1016.3 -0.1 59
2019-08-13 12:00:00 24.8 40 Nordeste 76 Nordeste 0 1016.6 0.5 60
2019-08-13 11:00:00 24.3 36 Nordeste 72 Nordeste 0 1016.5 0.7 61
2019-08-13 10:00:00 23.2 39 Nordeste 75 Nordeste 0 1016.4 0.7 64
2019-08-13 09:00:00 22.5 43 Nordeste 73 Nordeste 0 1016.1 0.3 66
2019-08-13 08:00:00 21.8 47 Nordeste 72 Nordeste 0 1015.8 0.1 71
2019-08-13 07:00:00 21.7 43 Nordeste 77 Nordeste 0 1015.7 -0.1 72
2019-08-13 06:00:00 21.9 38 Nordeste 75 Nordeste 0 1015.8 -0.1 67
2019-08-13 05:00:00 22.1 32 Nordeste 76 Nordeste 0 1015.7 -0.6 68
2019-08-13 04:00:00 21.9 31 Nordeste 72 Nordeste 0 1015.8 -0.8 74
2019-08-13 03:00:00 22 45 Nordeste 75 Nordeste 0 1015.9 -0.8 72
2019-08-13 02:00:00 22.1 41 Nordeste 78 Nordeste 0 1016.3 -0.5 74
2019-08-13 01:00:00 22.2 38 Nordeste 72 Nordeste 0 1016.6 -0.2 72
2019-08-13 00:00:00 22.3 39 Nordeste 76 Nordeste 0 1016.7 0.7 72
2019-08-12 23:00:00 22.4 39 Nordeste 67 Nordeste 0 1016.8 1.4 72
2019-08-12 22:00:00 22.7 33 Nordeste 72 Nordeste 0 1016.8 1.8 68
2019-08-12 21:00:00 22.9 31 Nordeste 75 Nordeste 0 1016 1.2 70
2019-08-12 20:00:00 23.8 33 Nordeste 72 Nordeste 0 1015.4 0.4 65
2019-08-12 19:00:00 25.1 24 Nordeste 72 Este 0 1015 0.3 61
2019-08-12 18:00:00 25.6 26 Nordeste 80 Nordeste 0 1014.8 -0.5 58
2019-08-12 17:00:00 25.5 31 Nordeste 80 Nordeste 0 1015 -0.3 58
2019-08-12 16:00:00 25.1 39 Norte 78 Nordeste 0 1014.7 -0.9 60
2019-08-12 15:00:00 25.4 45 Norte 84 Norte 0 1015.3 -1 59
2019-08-12 14:00:00 25 48 Norte 87 Nordeste 0 1015.3 -1 62
2019-08-12 13:00:00 25.2 48 Nordeste 84 Nordeste 0 1015.6 -0.3 61
2019-08-12 12:00:00 25.1 48 Nordeste 78 Nordeste 0 1016.3 1 61
2019-08-12 11:00:00 24.5 43 Nordeste 82 Nordeste 0 1016.3 1.2 64
2019-08-12 10:00:00 23.8 33 Nordeste 73 Nordeste 0 1015.9 0.8 69
2019-08-12 09:00:00 23 48 Nordeste 73 Nordeste 0 1015.3 0.6 70
2019-08-12 08:00:00 22.5 49 Nordeste 76 Nordeste 0 1015.1 0.8 73
2019-08-12 07:00:00 22.5 46 Nordeste 78 Nordeste 0 1015.1 0.6 71
2019-08-12 06:00:00 22.4 43 Nordeste 76 Nordeste 0 1014.7 -0.6 73
2019-08-12 05:00:00 22.4 46 Nordeste 78 Nordeste 0 1014.3 -1.5 72
2019-08-12 04:00:00 22.4 45 Nordeste 72 Nordeste 0 1014.5 -1.6 72
2019-08-12 03:00:00 22.6 47 Nordeste 81 Nordeste 0 1015.3 -0.5 69
2019-08-12 02:00:00 22.5 45 Nordeste 78 Nordeste 0 1015.8 -0.5 68
2019-08-12 01:00:00 22.6 47 Nordeste 72 Nordeste 0 1016.1 -0.1 68
2019-08-12 00:00:00 23 44 Nordeste 70 Nordeste 0 1015.8 -0.2 61
2019-08-11 23:00:00 22.8 41 Nordeste 75 Nordeste 0 1016.3 1 69
2019-08-11 22:00:00 22.9 50 Nordeste 75 Nordeste 0 1016.2 1.6 69
2019-08-11 21:00:00 23.4 51 Nordeste 80 Nordeste 0 1016 0.9 64
2019-08-11 20:00:00 24.2 46 Nordeste 83 Nordeste 0 1015.3 0.1 65
2019-08-11 19:00:00 25.2 48 Nordeste 82 Nordeste 0 1014.6 -0.9 61
2019-08-11 18:00:00 26.1 44 Nordeste 79 Nordeste 0 1015.1 -0.8 56
2019-08-11 17:00:00 26.5 39 Nordeste 76 Nordeste 0 1015.2 -0.8 56
2019-08-11 16:00:00 26.1 41 Nordeste 84 Nordeste 0 1015.5 -1 60
2019-08-11 15:00:00 26.5 33 Nordeste 73 Nordeste 0 1015.9 -0.9 58
2019-08-11 14:00:00 26.8 38 Norte 75 Nordeste 0 1016 -1 63
2019-08-11 13:00:00 26 40 Norte 75 Nordeste 0 1016.5 -0.5 65
2019-08-11 12:00:00 27.4 42 Nordeste 77 Nordeste 0 1016.8 0.3 54
2019-08-11 11:00:00 26 48 Nordeste 83 Nordeste 0 1017 0.8 61
2019-08-11 10:00:00 25.5 42 Nordeste 78 Nordeste 0 1017 1.5 64
2019-08-11 09:00:00 25 49 Nordeste 75 Nordeste 0 1016.5 1 68
2019-08-11 08:00:00 24.3 44 Nordeste 73 Nordeste 0 1016.2 0.8 71
2019-08-11 07:00:00 24 52 Nordeste 72 Nordeste 0 1015.5 0 76
2019-08-11 06:00:00 24 42 Nordeste 77 Nordeste 0 1015.5 -0.6 76
2019-08-11 05:00:00 24.1 43 Nordeste 80 Nordeste 0 1015.4 -1.6 75
2019-08-11 04:00:00 23.9 52 Nordeste 76 Nordeste 0 1015.5 -1.7 76
2019-08-11 03:00:00 23.8 48 Nordeste 75 Este 0 1016.1 -1.7 77
2019-08-11 02:00:00 23.8 43 Nordeste 76 Nordeste 0 1017 -0.4 78
2019-08-11 01:00:00 24.1 45 Nordeste 73 Nordeste 0 1017.2 -0.2 76
2019-08-11 00:00:00 23.9 37 Nordeste 73 Nordeste 0 1017.8 1.3 78
2019-08-10 23:00:00 24.2 49 Nordeste 72 Nordeste 0 1017.4 1.3 75
2019-08-10 22:00:00 23.8 36 Nordeste 69 Nordeste 0 1017.4 1.7 78
2019-08-10 21:00:00 23.9 41 Nordeste 76 Nordeste 0 1016.5 0.8 77
2019-08-10 20:00:00 24.2 41 Norte 71 Norte 0 1016.1 0.1 77
2019-08-10 19:00:00 25.1 49 Norte 68 Norte 0 1015.7 -0.8 72
2019-08-10 18:00:00 26.1 44 Norte 69 Norte 0 1015.7 -1 67
2019-08-10 17:00:00 26.5 41 Norte 71 Norte 0 1016 -1 64
2019-08-10 16:00:00 27.7 39 Norte 71 Norte 0 1016.5 -0.6 60
2019-08-10 15:00:00 27.2 42 Norte 67 Nordeste 0 1016.7 -0.6 62
2019-08-10 14:00:00 27.7 40 Nordeste 69 Norte 0 1017 -0.3 60
2019-08-10 13:00:00 26.9 40 Norte 68 Norte 0 1017.1 0.2 62
2019-08-10 12:00:00 26.6 32 Nordeste 63 Nordeste 0 1017.3 0.7 63
2019-08-10 11:00:00 26.4 27 Nordeste 49 Nordeste 0 1017.3 0.9 61
2019-08-10 10:00:00 25.6 26 Nordeste 44 Norte 0 1016.9 1.1 58
2019-08-10 09:00:00 23.9 5 Sudeste 35 Este 0 1016.6 0.8 60
2019-08-10 08:00:00 22.9 21 Este 44 Nordeste 0 1016.4 0.7 65
2019-08-10 07:00:00 23.4 27 Nordeste 48 Nordeste 0 1015.8 -0.2 63
2019-08-10 06:00:00 23.5 32 Nordeste 55 Nordeste 0 1015.8 -0.5 67
2019-08-10 05:00:00 23.3 33 Nordeste 55 Nordeste 0 1015.7 -1.3 67
2019-08-10 04:00:00 23 16 Este 39 Nordeste 0 1016 -1.6 67
2019-08-10 03:00:00 23.2 19 Nordeste 44 Nordeste 0 1016.3 -1.5 70
2019-08-10 02:00:00 23.3 17 Nordeste 39 Nordeste 0 1017 -0.5 71
2019-08-10 01:00:00 23.5 19 Nordeste 34 Nordeste 0 1017.6 0.4 68
2019-08-10 00:00:00 23.5 9 Nordeste 30 Nordeste 0 1017.8 1.3 69
2019-08-09 23:00:00 23.5 21 Nordeste 40 Nordeste 0 1017.5 1.3 73
2019-08-09 22:00:00 23.7 19 Nordeste 41 Nordeste 0 1017.2 1.3 73
2019-08-09 21:00:00 23.8 23 Nordeste 48 Nordeste 0 1016.5 0.7 74
2019-08-09 20:00:00 24.4 24 Norte 46 Norte 0 1016.2 0.5 73
2019-08-09 19:00:00 25.7 25 Nordeste 43 Nordeste 0 1015.9 -0.2 67
2019-08-09 18:00:00 26.2 28 Norte 52 Nordeste 0 1015.8 -0.4 65
2019-08-09 17:00:00 26.9 29 Norte 51 Norte 0 1015.7 -0.9 62
2019-08-09 16:00:00 27.1 29 Norte 47 Norte 0 1016.1 -1 61
2019-08-09 15:00:00 28.9 23 Norte 41 Norte 0 1016.2 -0.9 55
2019-08-09 14:00:00 28.5 8 Norte 24 Oeste 0 1016.6 0 56
2019-08-09 13:00:00 26.1 12 Oeste 27 Noroeste 0 1017.1 1.2 64
2019-08-09 12:00:00 25.1 11 Noroeste 26 Sudoeste 0 1017.1 1.5 66
2019-08-09 11:00:00 25.3 12 Norte 26 Noroeste 0 1016.6 1.1 62
2019-08-09 10:00:00 25.1 17 Nordeste 28 Nordeste 0 1015.9 0.8 61
2019-08-09 09:00:00 23.3 2 Este 10 Sudeste 0 1015.6 0.2 67
2019-08-09 08:00:00 22 9 Nordeste 27 Nordeste 0 1015.5 0 71
2019-08-09 07:00:00 21.4 7 Este 20 Nordeste 0 1015.1 -0.4 74
2019-08-09 06:00:00 22.1 16 Nordeste 32 Nordeste 0 1015.4 -0.6 74
2019-08-09 05:00:00 22.2 17 Nordeste 32 Nordeste 0 1015.5 -0.9 75
2019-08-09 04:00:00 22.5 13 Nordeste 37 Nordeste 0 1015.5 -1.4 73
2019-08-09 03:00:00 22.5 22 Nordeste 32 Nordeste 0 1016 -0.7 76
2019-08-09 02:00:00 22.2 5 Este 14 Norte 0 1016.4 0 75
2019-08-09 01:00:00 22.6 4 Este 13 Nordeste 0 1016.9 1.1 74
2019-08-09 00:00:00 23.1 10 Nordeste 31 Nordeste 0 1016.7 1.3 74
2019-08-08 23:00:00 23.2 24 Nordeste 36 Nordeste 0 1016.4 1.7 75
2019-08-08 22:00:00 23.3 19 Nordeste 37 Nordeste 0 1015.8 1.5 76
2019-08-08 21:00:00 23.6 21 Nordeste 35 Norte 0 1015.4 1.3 74
2019-08-08 20:00:00 24.7 24 Norte 37 Norte 0 1014.7 0.2 67
2019-08-08 19:00:00 26.6 22 Norte 38 Nordeste 0 1014.3 -0.6 61
2019-08-08 18:00:00 27.9 19 Norte 32 Norte 0 1014.1 -0.3 55
2019-08-08 17:00:00 28.1 12 Oeste 24 Norte 0 1014.5 0.1 56
2019-08-08 16:00:00 27.7 15 Noroeste 30 Noroeste 0 1014.9 0.4 58
2019-08-08 15:00:00 28.6 18 Norte 34 Norte 0 1014.4 -0.6 52
2019-08-08 14:00:00 28.5 19 Norte 39 Norte 0 1014.4 -0.7 51
2019-08-08 13:00:00 28.5 22 Norte 34 Norte 0 1014.5 0.1 51
2019-08-08 12:00:00 27.3 10 Nordeste 27 Norte 0 1015 0.9 55
2019-08-08 11:00:00 24.8 9 Oeste 19 Noroeste 0 1015.1 1.1 64
2019-08-08 10:00:00 24.1 11 Norte 19 Norte 0 1014.4 0.7 64
2019-08-08 09:00:00 21.2 6 Este 9 Este 0 1014.1 0.6 77
2019-08-08 08:00:00 18.5 4 Este 9 Sudeste 0 1014 0.8 83
2019-08-08 07:00:00 18.7 8 Sudeste 10 Sudeste 0 1013.7 0.2 82
2019-08-08 06:00:00 19.3 5 Este 10 Este 0 1013.5 -0.3 81
2019-08-08 05:00:00 19.6 5 Sudeste 10 Este 0 1013.2 -1 79
2019-08-08 04:00:00 20.3 6 Este 15 Nordeste 0 1013.5 -1 77
2019-08-08 03:00:00 22.3 15 Nordeste 25 Nordeste 0 1013.8 -0.9 73
2019-08-08 02:00:00 22.1 9 Este 31 Nordeste 0 1014.2 -0.7 72
2019-08-08 01:00:00 21.7 6 Este 16 Nordeste 0 1014.5 0.3 72
2019-08-08 00:00:00 22.8 8 Nordeste 31 Norte 0 1014.7 1.1 71
2019-08-07 23:00:00 23 20 Norte 39 Norte 0 1014.9 1.6 71
2019-08-07 22:00:00 23.1 22 Nordeste 52 Norte 0 1014.2 0.8 72
2019-08-07 21:00:00 23.3 29 Nordeste 56 Nordeste 0 1013.6 0 71
2019-08-07 20:00:00 24.1 30 Norte 54 Nordeste 0 1013.3 -0.5 69
2019-08-07 19:00:00 25.3 29 Norte 60 Norte 0 1013.4 -0.8 63
2019-08-07 18:00:00 26.1 29 Nordeste 59 Nordeste 0 1013.6 -0.9 59
2019-08-07 17:00:00 26.8 31 Norte 58 Norte 0 1013.8 -0.9 58
2019-08-07 16:00:00 26.5 33 Norte 60 Norte 0 1014.2 -0.5 59
2019-08-07 15:00:00 26.9 33 Norte 60 Norte 0 1014.5 -0.4 57
2019-08-07 14:00:00 26 36 Norte 58 Nordeste 0 1014.7 -0.1 59
2019-08-07 13:00:00 26.4 29 Norte 55 Norte 0 1014.7 -0.1 58
2019-08-07 12:00:00 25.8 33 Nordeste 56 Nordeste 0 1014.9 0.2 60
2019-08-07 11:00:00 25 29 Nordeste 53 Nordeste 0 1014.8 0.7 61
2019-08-07 10:00:00 23.9 30 Nordeste 50 Nordeste 0 1014.8 1.1 69
2019-08-07 09:00:00 23.1 24 Nordeste 46 Nordeste 0 1014.7 1.2 69
2019-08-07 08:00:00 22.3 23 Nordeste 43 Nordeste 0 1014.1 0.6 70
2019-08-07 07:00:00 22.1 24 Nordeste 41 Nordeste 0 1013.7 0.1 70
2019-08-07 06:00:00 21.9 18 Este 46 Nordeste 0 1013.5 -0.3 69
2019-08-07 05:00:00 21.9 31 Nordeste 49 Nordeste 0 1013.5 -0.9 76
2019-08-07 04:00:00 22.1 32 Nordeste 54 Nordeste 0 1013.6 -1 74
2019-08-07 03:00:00 22.2 29 Nordeste 57 Nordeste 0 1013.8 -1.4 77
2019-08-07 02:00:00 22.8 35 Nordeste 59 Nordeste 0 1014.4 -0.4 65
2019-08-07 01:00:00 22.6 32 Nordeste 66 Nordeste 0 1014.6 0.3 69
2019-08-07 00:00:00 23.3 32 Nordeste 63 Este 0 1015.2 1.3 61
2019-08-06 23:00:00 23.3 26 Este 68 Este 0 1014.8 1.2 62
2019-08-06 22:00:00 23.5 26 Este 66 Este 0 1014.3 0.8 65
2019-08-06 21:00:00 24 37 Nordeste 72 Nordeste 0 1013.9 0.4 59
2019-08-06 20:00:00 25.2 33 Nordeste 75 Nordeste 0 1013.6 -0.6 57
2019-08-06 19:00:00 26 36 Nordeste 72 Nordeste 0 1013.5 -1 57
2019-08-06 18:00:00 27.5 27 Nordeste 63 Nordeste 0 1013.5 -1.4 50
2019-08-06 17:00:00 29 22 Este 64 Este 0 1014.2 -1 50
2019-08-06 16:00:00 28.4 18 Nordeste 65 Nordeste 0 1014.5 -0.6 54
2019-08-06 15:00:00 27.1 19 Nordeste 78 Nordeste 0 1014.9 -0.7 57
2019-08-06 14:00:00 27.1 13 Norte 59 Este 0 1015.2 -0.4 54
2019-08-06 13:00:00 26.8 18 Norte 62 Este 0 1015.1 -0.5 54
2019-08-06 12:00:00 25.6 23 Nordeste 58 Nordeste 0 1015.6 0 57
2019-08-06 11:00:00 24.9 24 Nordeste 62 Este 0 1015.6 0.4 61
2019-08-06 10:00:00 24.3 19 Nordeste 64 Nordeste 0 1015.6 0.4 65
2019-08-06 09:00:00 23.3 32 Nordeste 58 Nordeste 0 1015.6 0.4 66
2019-08-06 08:00:00 22.6 36 Nordeste 57 Este 0 1015.2 0 66
2019-08-06 07:00:00 22.5 26 Este 60 Este 0 1015.2 -0.3 69
2019-08-06 06:00:00 22.6 31 Este 64 Este 0 1015.2 -0.5 67
2019-08-06 05:00:00 22.3 32 Este 60 Este 0 1015.2 -0.5 72
2019-08-06 04:00:00 23.1 30 Este 68 Este 0 1015.5 -0.9 63
2019-08-06 03:00:00 22.9 30 Este 75 Este 0 1015.7 -0.6 69
2019-08-06 02:00:00 22.6 31 Sudeste 59 Este 0 1015.7 -0.6 73
2019-08-06 01:00:00 22.7 27 Este 68 Este 0 1016.4 0.6 73
2019-08-06 00:00:00 22.8 26 Este 64 Este 0 1016.3 1.2 74
2019-08-05 23:00:00 23.5 22 Este 66 Este 0 1016.3 1.6 67
2019-08-05 22:00:00 23.3 27 Este 70 Este 0 1015.8 1.3 70
2019-08-05 21:00:00 23.5 32 Nordeste 68 Nordeste 0 1015.1 0.5 70
2019-08-05 20:00:00 24.4 28 Nordeste 67 Nordeste 0 1014.7 -0.1 68
2019-08-05 19:00:00 24.6 26 Norte 81 Nordeste 0 1014.5 -0.3 68
2019-08-05 18:00:00 25.2 35 Norte 70 Nordeste 0 1014.6 -0.6 66
2019-08-05 17:00:00 26 26 Nordeste 81 Nordeste 0 1014.8 -1 64
2019-08-05 16:00:00 25.7 28 Norte 71 Nordeste 0 1014.8 -1 63
2019-08-05 15:00:00 25.5 35 Norte 69 Nordeste 0 1015.2 -1 64
2019-08-05 14:00:00 25.8 33 Norte 69 Nordeste 0 1015.8 -0.3 61
2019-08-05 13:00:00 25.4 33 Norte 67 Nordeste 0 1015.8 -0.1 60
2019-08-05 12:00:00 25 34 Norte 72 Nordeste 0 1016.2 -0.1 59
2019-08-05 11:00:00 24.6 37 Nordeste 60 Nordeste 0 1016.1 0.5 64
2019-08-05 10:00:00 23.8 25 Nordeste 63 Nordeste 0 1015.9 0.5 66
2019-08-05 09:00:00 23.2 33 Nordeste 72 Nordeste 0 1016.3 0.7 70
2019-08-05 08:00:00 22.6 32 Este 65 Este 0 1015.6 -0.2 76
2019-08-05 07:00:00 23 24 Este 62 Este 0 1015.4 -0.3 64
2019-08-05 06:00:00 22.6 26 Este 56 Este 0 1015.6 -0.4 67
2019-08-05 05:00:00 22.5 18 Este 56 Este 0 1015.8 -1 74
2019-08-05 04:00:00 22.7 26 Este 71 Este 0 1015.7 -1.1 73
2019-08-05 03:00:00 23.1 22 Este 59 Nordeste 0 1016 -1.2 59
2019-08-05 02:00:00 23 32 Nordeste 63 Nordeste 0 1016.8 0.3 63
2019-08-05 01:00:00 23 42 Nordeste 64 Nordeste 0 1016.8 0.4 63
2019-08-05 00:00:00 23 36 Nordeste 60 Nordeste 0 1017.2 1.2 66
2019-08-04 23:00:00 23.4 24 Nordeste 71 Nordeste 0 1016.5 1.2 63
2019-08-04 22:00:00 23.8 33 Nordeste 66 Este 0 1016.4 1.5 57
2019-08-04 21:00:00 24 42 Nordeste 78 Nordeste 0 1016 0.8 56
2019-08-04 20:00:00 25.6 30 Nordeste 64 Este 0 1015.3 0.1 57
2019-08-04 19:00:00 26.7 21 Sudeste 71 Nordeste 0 1014.9 -0.2 54
2019-08-04 18:00:00 28.1 19 Este 69 Este 0 1015.2 -0.5 46
2019-08-04 17:00:00 28.7 22 Este 78 Este 0 1015.2 -0.9 44
2019-08-04 16:00:00 28 20 Este 66 Este 0 1015.1 -1.7 45
2019-08-04 15:00:00 28.6 15 Este 70 Este 0 1015.7 -1.4 48
2019-08-04 14:00:00 27.9 21 Nordeste 63 Este 0 1016.1 -1.1 47
2019-08-04 13:00:00 27.8 24 Este 68 Nordeste 0 1016.8 0 46
2019-08-04 12:00:00 26.6 21 Este 75 Este 0 1017.1 0.5 49
2019-08-04 11:00:00 25.7 30 Este 67 Este 0 1017.2 0.8 51
2019-08-04 10:00:00 24.4 25 Este 62 Este 0 1016.8 0.5 57
2019-08-04 09:00:00 22.7 32 Nordeste 66 Este 0 1016.6 0.4 65
2019-08-04 08:00:00 22.1 24 Nordeste 55 Nordeste 0 1016.4 0.3 60
2019-08-04 07:00:00 21.6 29 Nordeste 51 Nordeste 0 1016.3 0.3 68
2019-08-04 06:00:00 21.6 26 Nordeste 50 Nordeste 0 1016.2 0.1 64
2019-08-04 05:00:00 21.5 21 Nordeste 45 Nordeste 0 1016.1 -0.5 64
2019-08-04 04:00:00 21.6 29 Nordeste 56 Nordeste 0 1016 -0.8 64
2019-08-04 03:00:00 21.6 30 Nordeste 58 Nordeste 0 1016.1 -1 65
2019-08-04 02:00:00 21.7 27 Nordeste 54 Nordeste 0 1016.6 -0.1 65
2019-08-04 01:00:00 21.9 31 Nordeste 62 Nordeste 0 1016.8 0.2 64
2019-08-04 00:00:00 22 33 Nordeste 63 Nordeste 0 1017.1 1.1 65
2019-08-03 23:00:00 22.2 37 Nordeste 76 Nordeste 0 1016.7 1 67
2019-08-03 22:00:00 22.4 38 Nordeste 64 Nordeste 0 1016.6 1.3 63
2019-08-03 21:00:00 22.6 35 Nordeste 68 Nordeste 0 1016 0.9 67
2019-08-03 20:00:00 24.6 32 Nordeste 69 Nordeste 0 1015.7 -0.5 57
2019-08-03 19:00:00 25.8 23 Este 72 Nordeste 0 1015.3 -1.4 56
2019-08-03 18:00:00 26.8 28 Este 75 Nordeste 0 1015.1 -1.9 50
2019-08-03 17:00:00 26.3 27 Nordeste -- -- 0 1016.2 -1.2 51
2019-08-03 16:00:00 25.9 -- -- -- -- 0 1016.7 -0.6 54
2019-08-03 15:00:00 -- -- -- -- -- -- -- -- --
2019-08-03 14:00:00 -- -- -- -- -- -- -- -- --
2019-08-03 13:00:00 -- -- -- -- -- -- -- -- --
2019-08-03 12:00:00 -- -- -- -- -- -- -- -- --
2019-08-03 11:00:00 -- -- -- -- -- -- -- -- --
2019-08-03 10:00:00 -- -- -- -- -- -- -- -- --
2019-08-03 09:00:00 -- -- -- -- -- -- -- -- --
2019-08-03 08:00:00 -- -- -- -- -- -- -- -- --
2019-08-03 07:00:00 -- -- -- -- -- -- -- -- --
2019-08-03 06:00:00 -- -- -- -- -- -- -- -- --
2019-08-03 05:00:00 -- -- -- -- -- -- -- -- --
2019-08-03 04:00:00 21.6 31 Nordeste 53 Nordeste 0 1016 -0.6 71
2019-08-03 03:00:00 21.9 25 Nordeste 58 Nordeste 0 1016.6 -0.4 69
2019-08-03 02:00:00 21.9 23 Nordeste 58 Nordeste 0 1016.9 0 69
2019-08-03 01:00:00 22.3 33 Nordeste 68 Nordeste 0 1016.6 0.1 67
2019-08-03 00:00:00 22.3 33 Nordeste 67 Nordeste 0 1017 0.9 67
2019-08-02 23:00:00 22.3 32 Nordeste 62 Nordeste 0 1016.9 1.1 67
2019-08-02 22:00:00 22.5 36 Nordeste 64 Nordeste 0 1016.5 0.5 67
2019-08-02 21:00:00 23.1 40 Nordeste 77 Nordeste 0 1016.1 0 66
2019-08-02 20:00:00 23.9 35 Nordeste 67 Nordeste 0 1015.8 -0.5 61
2019-08-02 19:00:00 24.8 31 Nordeste 69 Nordeste 0 1016 -0.5 59
2019-08-02 18:00:00 25.1 35 Nordeste 67 Nordeste 0 1016.1 -0.8 58
2019-08-02 17:00:00 26 29 Nordeste 61 Nordeste 0 1016.3 -1 57
2019-08-02 16:00:00 25.9 27 Norte 69 Nordeste 0 1016.5 -1.2 55
2019-08-02 15:00:00 26.9 30 Nordeste -- -- 0 1016.9 -0.7 50
2019-08-02 14:00:00 25.9 27 Nordeste -- -- 0 1017.3 -0.1 53
2019-08-02 13:00:00 25.9 25 Nordeste -- -- 0 1017.7 0.6 54
2019-08-02 12:00:00 25.2 30 Nordeste 55 Este 0 1017.6 0.6 55
2019-08-02 11:00:00 24.5 29 Nordeste -- -- 0 1017.4 0.6 57
2019-08-02 10:00:00 23.7 -- -- -- -- 0 1017.1 1.2 61
2019-08-02 09:00:00 22.7 23 Este -- -- 0 1017 1.1 64
2019-08-02 08:00:00 21.6 26 Nordeste 57 Este 0 1016.8 0.7 70
2019-08-02 07:00:00 21.6 21 Este -- -- 0 1015.9 -0.5 68
2019-08-02 06:00:00 21.6 25 Nordeste -- -- 0 1015.9 -0.6 65
2019-08-02 05:00:00 21.4 18 Este 44 Nordeste 0 1016.1 -0.3 67
2019-08-02 04:00:00 21.4 26 Nordeste 49 Nordeste 0 1016.4 -0.1 65
2019-08-02 03:00:00 21.6 28 Nordeste 62 Nordeste 0 1016.5 -0.3 66
2019-08-02 02:00:00 21.6 30 Nordeste 65 Nordeste 0 1016.4 -0.2 66
2019-08-02 01:00:00 21.9 33 Nordeste 63 Nordeste 0 1016.5 0.3 65
2019-08-02 00:00:00 22.3 39 Nordeste 68 Nordeste 0 1016.8 0.8 63
2019-08-01 23:00:00 22.1 33 Nordeste 67 Nordeste 0 1016.6 0.9 64
2019-08-01 22:00:00 22.4 41 Nordeste 71 Nordeste 0 1016.2 1 63
2019-08-01 21:00:00 23 38 Nordeste 68 Nordeste 0 1016 0.3 62
2019-08-01 20:00:00 25 28 Este 74 Este 0 1015.7 0 55
2019-08-01 19:00:00 26.3 22 Este -- -- 0 1015.2 -0.4 50
2019-08-01 18:00:00 25.4 27 Norte -- -- 0 1015.7 0 53
2019-08-01 17:00:00 27.2 21 Nordeste -- -- 0 1015.7 -0.6 47
2019-08-01 16:00:00 26.4 17 Este -- -- 0 1015.6 -1.2 52
2019-08-01 15:00:00 27.4 21 Nordeste -- -- 0 1015.7 -0.9 46
2019-08-01 14:00:00 25.9 -- -- -- -- 0 1016.3 -0.2 51
2019-08-01 13:00:00 25.9 25 Nordeste -- -- 0 1016.8 1 52
2019-08-01 12:00:00 26.3 -- -- -- -- 0 1016.6 1 47
2019-08-01 11:00:00 24.9 27 Nordeste -- -- 0 1016.5 1.3 58
2019-08-01 10:00:00 24.1 30 Este -- -- 0 1015.8 1 54
2019-08-01 09:00:00 22.6 -- -- -- -- 0 1015.6 1 56
2019-08-01 08:00:00 21.2 -- -- -- -- 0 1015.2 0.5 65
2019-08-01 07:00:00 21.5 -- -- -- -- 0 1014.8 -0.2 65
2019-08-01 06:00:00 21.5 -- -- -- -- 0 1014.6 -0.7 66
2019-08-01 05:00:00 21.4 37 Nordeste -- -- 0 1014.7 -0.6 62
2019-08-01 04:00:00 21.5 -- -- -- -- 0 1015 -1.3 63
2019-08-01 03:00:00 21.7 31 Nordeste -- -- 0 1015.3 -1 61
2019-08-01 02:00:00 21.7 -- -- -- -- 0 1015.3 -0.7 63
2019-08-01 01:00:00 21.8 -- -- -- -- 0 1016.3 0.9 65
2019-08-01 00:00:00 21.7 -- -- -- -- 0 1016.3 1.4 65
2019-07-31 23:00:00 22.2 -- -- -- -- 0 1016 1.5 58
2019-07-31 22:00:00 22.1 -- -- -- -- 0 1015.4 1.4 65
2019-07-31 21:00:00 22.9 17 Nordeste -- -- 0 1014.9 0.7 57
2019-07-31 20:00:00 24.3 -- -- -- -- 0 1014.5 0.4 54
2019-07-31 19:00:00 25.7 -- -- -- -- 0 1014 -0.9 51
2019-07-31 18:00:00 26.7 -- -- -- -- 0 1014.2 -0.8 48
2019-07-31 17:00:00 28.2 -- -- -- -- 0 1014.1 -1.4 43
2019-07-31 16:00:00 27.8 -- -- -- -- 0 1014.9 -0.8 45
2019-07-31 15:00:00 27.4 -- -- -- -- 0 1015 -1.2 47
2019-07-31 14:00:00 27.5 -- -- -- -- 0 1015.5 -0.1 45
2019-07-31 13:00:00 27 24 Este 71 Este 0 1015.7 -0.3 47
2019-07-31 12:00:00 27 30 Este 53 Nordeste 0 1016.2 0.7 46
2019-07-31 11:00:00 25.5 30 Este 55 Este 0 1015.6 0.6 47
2019-07-31 10:00:00 24.3 20 Este 47 Este 0 1016 1.7 54
2019-07-31 09:00:00 22.6 24 Este 50 Este 0 1015.5 1 56
2019-07-31 08:00:00 21.7 19 Nordeste 39 Sudeste 0 1015 0.6 56
2019-07-31 07:00:00 21.3 27 Este 51 Este 0 1014.3 -0.1 59
2019-07-31 06:00:00 21.4 24 Este 56 Este 0 1014.5 -0.4 58
2019-07-31 05:00:00 21.8 22 Este 55 Este 0 1014.4 -1.1 57
2019-07-31 04:00:00 21.5 27 Este 61 Sudeste 0 1014.4 -2.1 65
2019-07-31 03:00:00 21.7 28 Sudeste 57 Este 0 1014.9 -1.7 66
2019-07-31 02:00:00 21.8 23 Sudeste 55 Este 0 1015.5 -1 66
2019-07-31 01:00:00 21.8 24 Este 57 Este 0 1016.5 0.4 60
2019-07-31 00:00:00 21.9 19 Este 59 Este 0 1016.6 1 59
2019-07-30 23:00:00 22.6 20 Este 58 Sudeste 0 1016.5 1 58
2019-07-30 22:00:00 22.1 28 Este 63 Este 0 1016.1 1 67
2019-07-30 21:00:00 22.8 26 Este 68 Este 0 1015.6 0.2 66
2019-07-30 20:00:00 24.4 26 Este 62 Este 0 1015.5 0.3 53
2019-07-30 19:00:00 24.7 31 Este 62 Este 0 1015.1 -0.9 58
2019-07-30 18:00:00 25.4 29 Este 77 Este 0 1015.4 -1.2 53
2019-07-30 17:00:00 27.2 26 Sudeste 54 Este 0 1015.2 -1.6 48
2019-07-30 16:00:00 26 30 Este -- -- 0 1016 -1.4 54
2019-07-30 15:00:00 27.8 -- -- -- -- 0 1016.6 -1.3 50
2019-07-30 14:00:00 24.2 -- -- -- -- 0 1016.8 -1 60
2019-07-30 13:00:00 25.5 -- -- -- -- 0 1017.4 -0.1 55
2019-07-30 12:00:00 24.8 -- -- -- -- 0 1017.9 0.8 62
2019-07-30 11:00:00 23.4 -- -- -- -- 0.2 1017.8 1.7 71
2019-07-30 10:00:00 21.5 -- -- -- -- 0 1017.5 2 85
2019-07-30 09:00:00 22.8 -- -- -- -- 0 1017.1 1.8 70
2019-07-30 08:00:00 22.5 -- -- -- -- 0 1016.1 0.7 69
2019-07-30 07:00:00 22.9 26 Sudeste -- -- 0 1015.5 0 73
2019-07-30 06:00:00 23.4 29 Este -- -- 0 1015.3 -0.7 67
2019-07-30 05:00:00 23.3 28 Este -- -- 0 1015.4 -1.1 64
2019-07-30 04:00:00 24 -- -- -- -- 0 1015.5 -1.5 60
2019-07-30 03:00:00 23.7 -- -- -- -- 0 1016 -1 61
2019-07-30 02:00:00 23.1 -- -- -- -- 0 1016.5 -0.3 70
2019-07-30 01:00:00 23 30 Este -- -- 0 1017 0.8 71
2019-07-30 00:00:00 23.7 -- -- -- -- 0 1017 1.8 66
2019-07-29 23:00:00 24 -- -- -- -- 0 1016.8 2.2 63
2019-07-29 22:00:00 23.5 30 Este -- -- 0 1016.2 1.7 65
2019-07-29 21:00:00 23.8 -- -- -- -- 0 1015.2 0.5 59
2019-07-29 20:00:00 25.3 36 Este -- -- 0 1014.6 -0.1 55
2019-07-29 19:00:00 26.1 -- -- -- -- 0 1014.5 -0.5 52
2019-07-29 18:00:00 26.4 24 Sudeste -- -- 0 1014.7 -0.5 54
2019-07-29 17:00:00 25.8 -- -- -- -- 0 1014.7 -0.5 56
2019-07-29 16:00:00 27.1 -- -- -- -- 0 1015 -0.5 52
2019-07-29 15:00:00 26.6 26 Nordeste -- -- 0 1015.2 -0.4 54
2019-07-29 14:00:00 26.6 -- -- -- -- 0 1015.2 -0.4 53
2019-07-29 13:00:00 26.5 25 Nordeste 77 Nordeste 0 1015.5 0.6 53
2019-07-29 12:00:00 26.1 31 Este 71 Este 0 1015.6 1 50
2019-07-29 11:00:00 25.1 32 Nordeste 75 Nordeste 0 1015.6 1 53
2019-07-29 10:00:00 23.9 35 Nordeste 79 Nordeste 0 1014.9 0.3 55
2019-07-29 09:00:00 23 32 Este 75 Este 0 1014.6 0.6 61
2019-07-29 08:00:00 22 27 Este 54 Este 0 1014.6 1.2 67
2019-07-29 07:00:00 21.9 29 Nordeste 69 Este 0 1014.6 0.9 64
2019-07-29 06:00:00 21.9 30 Nordeste 67 Nordeste 0 1014 -0.3 66
2019-07-29 05:00:00 21.9 33 Nordeste 71 Este 0 1013.4 -1 65
2019-07-29 04:00:00 22 36 Nordeste 67 Nordeste 0 1013.7 -1 65
2019-07-29 03:00:00 22.1 29 Nordeste 62 Nordeste 0 1014.3 -0.5 67
2019-07-29 02:00:00 22.6 36 Nordeste 62 Nordeste 0 1014.4 -0.3 65
2019-07-29 01:00:00 22.7 37 Nordeste 76 Nordeste 0 1014.7 0.7 62
2019-07-29 00:00:00 22.8 40 Nordeste 68 Nordeste 0 1014.8 0.8 63
2019-07-28 23:00:00 22.8 41 Nordeste 75 Este 0 1014.7 1.6 62
2019-07-28 22:00:00 23.4 37 Nordeste 77 Nordeste 0 1014 2.3 63
2019-07-28 21:00:00 23.3 39 Nordeste 71 Nordeste 0 1014 2 66
2019-07-28 20:00:00 25 29 Este -- -- 0 1013.1 1 61
2019-07-28 19:00:00 26.6 28 Este -- -- 0 1011.7 -0.4 55
2019-07-28 18:00:00 27.3 -- -- -- -- 0 1012 -0.3 56
2019-07-28 17:00:00 28.1 -- -- -- -- 0 1012.1 -1 52
2019-07-28 16:00:00 28.4 32 Este 80 Nordeste 0 1012.1 -1.4 55
2019-07-28 15:00:00 26.8 33 Nordeste 76 Nordeste 0 1012.3 -1.6 62
2019-07-28 14:00:00 26.5 33 Nordeste -- -- 0 1013.1 -0.6 64
2019-07-28 13:00:00 26.3 -- -- -- -- 0 1013.5 -0.2 63
2019-07-28 12:00:00 26.5 38 Nordeste 81 Este 0 1013.9 0.3 61
2019-07-28 11:00:00 24.1 48 Nordeste 72 Nordeste 0 1013.7 0.5 72
2019-07-28 10:00:00 23.4 36 Nordeste 63 Nordeste 0 1013.7 0.7 75
2019-07-28 09:00:00 23.6 32 Nordeste 73 Nordeste 0 1013.6 0.9 70
2019-07-28 08:00:00 22.4 42 Nordeste 71 Nordeste 0 1013.2 0.4 73
2019-07-28 07:00:00 21.9 39 Nordeste -- -- 0 1013 -0.2 74
2019-07-28 06:00:00 22.1 37 Nordeste 73 Nordeste 0 1012.7 -1.3 75
2019-07-28 05:00:00 22.1 37 Nordeste 73 Nordeste 0 1012.8 -1.6 74
2019-07-28 04:00:00 22.3 42 Nordeste 86 Nordeste 0 1013.2 -1.6 71
2019-07-28 03:00:00 22.1 41 Nordeste -- -- 0 1014 -1.2 74
2019-07-28 02:00:00 22.1 38 Nordeste 70 Nordeste 0 1014.4 -0.9 73
2019-07-28 01:00:00 21.9 35 Nordeste 80 Nordeste 0 1014.8 -0.2 70
2019-07-28 00:00:00 21.9 45 Nordeste 76 Nordeste 0 1015.2 0.9 67
2019-07-27 23:00:00 22.1 42 Nordeste 78 Nordeste 0 1015.3 1.1 66
2019-07-27 22:00:00 22.3 40 Nordeste 68 Nordeste 0 1015 0.9 67
2019-07-26 11:00:00 24.2 -- -- -- -- 0 1015.5 1.2 69
2019-07-26 10:00:00 23.6 -- -- -- -- 0 1015.2 1.2 72
2019-07-26 09:00:00 22.9 -- -- -- -- 0 1015.1 1.3 73
2019-07-26 08:00:00 22 27 Nordeste -- -- 0 1014.3 0.7 76
2019-07-26 07:00:00 22 -- -- -- -- 0 1014 0.1 77
2019-07-26 06:00:00 22.3 -- -- -- -- 0 1013.8 -0.6 75
2019-07-26 05:00:00 22.2 -- -- -- -- 0 1013.6 -0.9 76
2019-07-26 04:00:00 22.3 -- -- -- -- 0 1013.9 -1.1 76
2019-07-26 03:00:00 22.9 38 Nordeste -- -- 0 1014.4 -0.9 72
2019-07-26 02:00:00 22.9 36 Nordeste -- -- 0 1014.5 -0.4 71
2019-07-26 01:00:00 23.6 29 Nordeste 71 Nordeste 0 1015 0.3 61
2019-07-26 00:00:00 22.4 45 Nordeste 80 Nordeste 0 1015.3 1.5 80
2019-07-25 23:00:00 22.7 47 Nordeste 83 Nordeste 0 1014.9 1.8 76
2019-07-25 22:00:00 23 48 Nordeste 80 Nordeste 0 1014.7 1.8 74
2019-07-25 21:00:00 22.6 44 Nordeste 81 Nordeste 0 1013.8 0.9 75
2019-07-25 20:00:00 23.6 36 Nordeste 69 Nordeste 0 1013.1 0.3 71
2019-07-25 19:00:00 24.1 37 Norte 72 Nordeste 0 1012.9 -0.3 69
2019-07-25 18:00:00 25.2 40 Nordeste -- -- 0 1012.9 -0.7 65
2019-07-25 17:00:00 25.2 -- -- -- -- 0 1012.8 -1.1 65
2019-07-25 16:00:00 25.1 40 Norte -- -- 0 1013.2 -0.7 65
2019-07-25 15:00:00 24.9 44 Norte -- -- 0 1013.6 -0.7 66
2019-07-25 14:00:00 25.7 35 Norte -- -- 0 1013.9 -0.4 61
2019-07-25 13:00:00 24.7 36 Norte -- -- 0 1013.9 -0.2 68
2019-07-25 12:00:00 25.1 28 Nordeste -- -- 0 1014.3 0.3 64
2019-07-25 11:00:00 24.3 32 Nordeste -- -- 0 1014.3 0.4 66
2019-07-25 10:00:00 22.9 -- -- -- -- 0 1014.1 0.9 74
2019-07-25 09:00:00 22.1 10 Este 43 Nordeste 0 1014 1.1 71
2019-07-25 08:00:00 21.2 26 Nordeste -- -- 0 1013.9 1 76
2019-07-25 07:00:00 20.2 15 Este -- -- 0 1013.2 0.3 74
2019-07-25 06:00:00 21.2 20 Este -- -- 0 1012.9 -0.1 78
2019-07-25 05:00:00 21.4 36 Nordeste 58 Nordeste 0 1012.9 -0.7 74
2019-07-25 04:00:00 21.7 36 Nordeste 62 Nordeste 0 1012.9 -1.2 74
2019-07-25 03:00:00 21.7 37 Nordeste 62 Nordeste 0 1013 -0.9 76
2019-07-25 02:00:00 22.3 36 Nordeste 57 Nordeste 0 1013.6 -0.2 69
2019-07-25 01:00:00 22 38 Nordeste 63 Nordeste 0 1014.1 0.8 73
2019-07-25 00:00:00 22.4 39 Nordeste 55 Nordeste 0 1013.9 0.9 69
2019-07-24 23:00:00 22.3 37 Nordeste 69 Nordeste 0 1013.8 1.1 73
2019-07-24 22:00:00 22.8 33 Nordeste 61 Nordeste 0 1013.3 1 67
2019-07-24 21:00:00 22.7 32 Nordeste 59 Norte 0 1013 0.5 71
2019-07-24 20:00:00 24 32 Nordeste 70 Norte 0 1012.7 0.1 66
2019-07-24 19:00:00 24 37 Norte 69 Norte 0 1012.3 -0.6 67
2019-07-24 18:00:00 24.7 37 Norte 62 Norte 0 1012.5 -1 65
2019-07-24 17:00:00 25.3 35 Nordeste 77 Norte 0 1012.6 -1.1 62
2019-07-24 16:00:00 25.3 38 Norte 66 Norte 0 1012.9 -0.9 62
2019-07-24 15:00:00 24.7 38 Norte 66 Norte 0 1013.5 -0.8 63
2019-07-24 14:00:00 25.4 -- -- -- -- 0 1013.7 -0.6 60
2019-07-24 13:00:00 24.4 36 Norte 67 Nordeste 0 1013.8 -0.1 64
2019-07-24 12:00:00 24.5 37 Nordeste -- -- 0 1014.3 0.5 63
2019-07-24 11:00:00 23.8 33 Nordeste -- -- 0 1014.3 0.7 65
2019-07-24 10:00:00 22.9 -- -- -- -- 0 1013.9 0.5 67
2019-07-24 09:00:00 21.8 -- -- -- -- 0 1013.8 0.9 70
2019-07-24 08:00:00 19 8 Este 44 Nordeste 0 1013.6 0.6 78
2019-07-24 07:00:00 20.9 29 Nordeste -- -- 0 1013.4 0.4 75
2019-07-24 06:00:00 21 -- -- -- -- 0 1012.9 -0.8 74
2019-07-24 05:00:00 21.1 39 Nordeste -- -- 0 1013 -1.2 74
2019-07-24 04:00:00 21.1 34 Norte 60 Nordeste 0 1013 -1.8 75
2019-07-24 03:00:00 21.3 36 Nordeste 72 Nordeste 0 1013.7 -1.9 71
2019-07-24 02:00:00 21.4 45 Nordeste 74 Nordeste 0 1014.2 -1.2 70
2019-07-24 01:00:00 21.5 41 Nordeste 71 Nordeste 0 1014.8 -0.2 69
2019-07-24 00:00:00 21.6 36 Nordeste 75 Nordeste 0 1015.6 0.9 69
2019-07-23 23:00:00 21.7 45 Nordeste 72 Nordeste 0 1015.4 1.2 69
2019-07-23 22:00:00 21.8 45 Nordeste 70 Nordeste 0 1015 0.9 69
2019-07-23 21:00:00 22 42 Nordeste 74 Nordeste 0 1014.7 0.5 70
2019-07-23 20:00:00 23.2 39 Nordeste 69 Nordeste 0 1014.2 -0.7 65
2019-07-23 19:00:00 23.9 36 Norte 69 Norte 0 1014.1 -1.1 61
2019-07-23 18:00:00 24.3 37 Norte -- -- 0 1014.2 -1.1 60
2019-07-23 17:00:00 25 -- -- -- -- 0 1014.9 -0.4 59
2019-07-23 16:00:00 25.2 -- -- -- -- 0 1015.2 -0.5 57
2019-07-23 15:00:00 24.4 35 Norte 69 Nordeste 0 1015.3 -0.2 60
2019-07-23 14:00:00 24.7 35 Norte 72 Nordeste 0 1015.3 -0.3 59
2019-07-23 13:00:00 24 40 Norte 70 Nordeste 0 1015.7 0.3 61
2019-07-23 12:00:00 23.6 40 Norte 65 Nordeste 0 1015.5 0.2 64
2019-07-23 11:00:00 23.2 38 Nordeste 67 Nordeste 0 1015.6 0.3 62
2019-07-23 10:00:00 22.2 38 Nordeste 66 Nordeste 0 1015.4 0.2 65
2019-07-23 09:00:00 21.5 38 Nordeste 72 Nordeste 0 1015.3 0 68
2019-07-23 08:00:00 20.9 39 Nordeste 67 Nordeste 0 1015.3 0 71
2019-07-23 07:00:00 20.8 36 Nordeste 66 Nordeste 0 1015.2 -0.3 72
2019-07-23 06:00:00 20.9 33 Nordeste 68 Nordeste 0 1015.3 -0.4 72
2019-07-23 05:00:00 21.1 40 Nordeste -- -- 0 1015.3 -1.2 69
2019-07-23 04:00:00 21.2 30 Nordeste 70 Nordeste 0 1015.5 -1.6 69
2019-07-23 03:00:00 21.2 42 Nordeste 71 Nordeste 0 1015.7 -1.5 69
2019-07-23 02:00:00 21.4 40 Nordeste 68 Nordeste 0 1016.5 -0.3 69
2019-07-23 01:00:00 21.4 32 Nordeste 64 Nordeste 0 1017.1 0.5 69
2019-07-23 00:00:00 21.5 37 Nordeste 70 Nordeste 0 1017.2 1.2 70
2019-07-22 23:00:00 21.4 40 Nordeste 68 Nordeste 0 1016.8 1.4 71
2019-07-22 22:00:00 21.6 36 Nordeste 68 Nordeste 0 1016.6 1.4 72
2019-07-22 21:00:00 21.9 39 Nordeste 68 Nordeste 0 1016 0.8 71
2019-07-22 20:00:00 23.1 39 Nordeste 70 Nordeste 0 1015.4 0.2 67
2019-07-22 19:00:00 24.5 38 Nordeste 71 Nordeste 0 1015.2 -0.6 62
2019-07-22 18:00:00 25.1 39 Nordeste 75 Nordeste 0 1015.2 -1.2 59
2019-07-22 17:00:00 25.2 41 Nordeste 75 Nordeste 0 1015.2 -1.6 58
2019-07-22 16:00:00 25.1 42 Nordeste 78 Nordeste 0 1015.8 -1.3 61
2019-07-22 15:00:00 25.3 41 Nordeste 72 Nordeste 0 1016.4 -0.7 61
2019-07-22 14:00:00 24.9 41 Nordeste 72 Nordeste 0 1016.8 -0.3 62
2019-07-22 13:00:00 24.6 40 Nordeste 76 Nordeste 0 1017.1 -0.1 61
2019-07-22 12:00:00 24 41 Nordeste 68 Nordeste 0 1017.1 0 64
2019-07-22 11:00:00 23.7 36 Nordeste 62 Nordeste 0 1017.1 -0.1 63
2019-07-22 10:00:00 23 35 Nordeste 61 Nordeste 0 1017.2 0 65
2019-07-22 09:00:00 22 37 Nordeste 61 Nordeste 0 1017.1 0.1 70
2019-07-22 08:00:00 21.2 41 Nordeste 63 Nordeste 0 1017.2 0.5 71
2019-07-22 07:00:00 21.1 33 Nordeste 53 Nordeste 0 1017.2 0.1 72
2019-07-22 06:00:00 21.2 32 Nordeste 58 Nordeste 0 1017 -0.7 70
2019-07-22 05:00:00 21.3 39 Nordeste 62 Nordeste 0 1016.7 -1.4 73
2019-07-22 04:00:00 21.4 37 Nordeste 62 Nordeste 0 1017.1 -1.5 73
2019-07-22 03:00:00 21.4 33 Nordeste 60 Nordeste 0 1017.7 -0.9 74
2019-07-22 02:00:00 21.7 38 Nordeste 62 Nordeste 0 1018.1 -0.4 72
2019-07-22 01:00:00 22 33 Nordeste 56 Nordeste 0 1018.6 0.7 71
2019-07-22 00:00:00 22 37 Nordeste 59 Nordeste 0 1018.6 1.5 70
2019-07-21 23:00:00 22.1 39 Nordeste 58 Nordeste 0 1018.5 1.7 72
2019-07-21 22:00:00 22.2 36 Nordeste 55 Norte 0 1017.9 1 69
2019-07-21 21:00:00 22.5 33 Nordeste 66 Nordeste 0 1017.1 0.7 69
2019-07-21 20:00:00 23.6 38 Nordeste 66 Nordeste 0 1016.8 0.2 66
2019-07-21 19:00:00 24.5 42 Nordeste 77 Nordeste 0 1016.9 0.1 62
2019-07-21 18:00:00 24.9 37 Norte 66 Nordeste 0 1016.4 -0.6 63
2019-07-21 17:00:00 25.6 41 Nordeste 71 Nordeste 0 1016.6 -0.8 60
2019-07-21 16:00:00 25.8 35 Nordeste 68 Norte 0 1016.8 -1.1 60
2019-07-21 15:00:00 26.1 40 Nordeste 67 Nordeste 0 1017 -0.8 56
2019-07-21 14:00:00 25.7 39 Nordeste 70 Nordeste 0 1017.4 -0.3 57
2019-07-21 13:00:00 25.5 36 Nordeste 59 Nordeste 0 1017.9 0.3 58
2019-07-21 12:00:00 24.9 37 Nordeste 57 Nordeste 0 1017.8 0.5 60
2019-07-21 11:00:00 24.2 29 Nordeste 55 Nordeste 0 1017.7 0.5 65
2019-07-21 10:00:00 23.4 30 Nordeste 53 Nordeste 0 1017.6 1.2 66
2019-07-21 09:00:00 22.6 6 Este 35 Nordeste 0 1017.3 1.2 68
2019-07-21 08:00:00 20.8 10 Nordeste 43 Nordeste 0 1017.2 1 72
2019-07-21 07:00:00 21.2 23 Nordeste 49 Este 0 1016.4 0 70
2019-07-21 06:00:00 21.7 25 Nordeste 66 Nordeste 0 1016.1 -0.7 73
2019-07-21 05:00:00 21.8 29 Nordeste 52 Nordeste 0 1016.2 -0.9 73
2019-07-21 04:00:00 21.9 16 Nordeste -- -- 0 1016.4 -1.4 73
2019-07-21 03:00:00 22.2 24 Nordeste -- -- 0 1016.8 -1.2 71
2019-07-21 02:00:00 22.3 -- -- -- -- 0 1017.1 -0.7 68
2019-07-21 01:00:00 22.3 -- -- -- -- 0 1017.8 0.6 71
2019-07-21 00:00:00 22.5 37 Nordeste -- -- 0 1018 1.6 68
2019-07-20 23:00:00 23 38 Nordeste -- -- 0 1017.8 1.8 66
2019-07-20 22:00:00 23.1 45 Nordeste -- -- 0 1017.2 1.4 66
2019-07-20 21:00:00 23.3 -- -- -- -- 0 1016.4 0.7 66
2019-07-20 20:00:00 24.5 33 Nordeste -- -- 0 1016 0.2 62
2019-07-20 19:00:00 25.4 -- -- -- -- 0 1015.8 -0.6 56
2019-07-20 18:00:00 26.1 -- -- -- -- 0 1015.7 -1 56
2019-07-20 17:00:00 26.9 -- -- -- -- 0 1015.8 -1.5 52
2019-07-20 16:00:00 26.3 -- -- -- -- 0 1016.4 -0.8 55
2019-07-20 15:00:00 28.3 19 Este 55 Este 0 1016.7 -0.4 47
2019-07-20 14:00:00 27.4 23 Nordeste 63 Este 0 1017.3 0.9 49
2019-07-20 13:00:00 26.7 20 Sudeste 69 Este 0 1017.2 0.8 54
2019-07-20 12:00:00 25.7 28 Nordeste 68 Este 0 1017.1 1.6 56
2019-07-20 11:00:00 25.1 21 Este 65 Nordeste 0 1016.4 1.4 61
2019-07-20 10:00:00 23.5 32 Este 68 Este 0 1016.4 2.2 68
2019-07-20 09:00:00 23 35 Este 67 Este 0 1015.5 0.8 70
2019-07-20 08:00:00 21.8 28 Este 70 Este 0 1015 0.5 73
2019-07-20 07:00:00 22.3 28 Este 63 Este 0 1014.2 -0.3 68
2019-07-20 06:00:00 22.3 27 Este 70 Este 0 1014.7 0.4 64
2019-07-20 05:00:00 22.3 22 Nordeste 55 Este 0 1014.5 -0.3 67
2019-07-20 04:00:00 22.1 41 Nordeste 67 Este 0 1014.5 -0.9 65
2019-07-20 03:00:00 21.7 38 Este 76 Este 0 1014.3 -1.3 70
2019-07-20 02:00:00 22 34 Este 70 Este 0 1014.8 -0.8 74
2019-07-20 01:00:00 23 30 Nordeste 70 Nordeste 0 1015.4 -0.1 62
2019-07-20 00:00:00 23.3 25 Este 58 Este 0 1015.6 1.3 62
2019-07-19 23:00:00 22.9 30 Este 58 Este 0 1015.6 1.4 65
2019-07-19 22:00:00 22.9 31 Este 72 Este 0 1015.5 1.1 65
2019-07-19 21:00:00 23 37 Este 67 Este 0 1014.3 -0.6 71
2019-07-19 20:00:00 23.3 34 Este 71 Este 0 1014.2 -0.4 69
2019-07-19 19:00:00 25.3 30 Nordeste 70 Nordeste 0 1014.4 -0.1 61
2019-07-19 18:00:00 27.3 31 Este 68 Este 0 1014.9 0.2 52
2019-07-19 17:00:00 27.4 30 Nordeste 78 Este 0 1014.6 -0.8 53
2019-07-19 16:00:00 27.7 32 Este 75 Este 0 1014.5 -1.6 52
2019-07-19 15:00:00 28.5 32 Este 75 Este 0 1014.7 -1.6 46
2019-07-19 14:00:00 27.7 26 Sudeste 67 Este 0 1015.4 -0.2 46
2019-07-19 13:00:00 27.8 30 Este 80 Este 0 1016.1 0.4 45
2019-07-19 12:00:00 26.4 30 Sudeste 70 Este 0 1016.3 0.5 54
2019-07-19 11:00:00 25.2 28 Este 54 Este 0 1015.6 0.4 50
2019-07-19 10:00:00 23.6 19 Este 46 Este 0 1015.7 0.8 57
2019-07-19 09:00:00 23.1 23 Este 45 Este 0 1015.8 1.3 53
2019-07-19 08:00:00 21.7 23 Este 54 Este 0 1015.2 0.4 61
2019-07-19 07:00:00 22 18 Este 51 Este 0 1014.9 0.2 60
2019-07-19 06:00:00 21.7 25 Sudeste 56 Este 0 1014.5 -0.5 63
2019-07-19 05:00:00 21.8 20 Este 48 Nordeste 0 1014.8 -0.7 57
2019-07-19 04:00:00 21.7 22 Este 47 Este 0 1014.7 -1.5 61
2019-07-19 03:00:00 21.8 23 Este 60 Este 0 1015 -1.3 58
2019-07-19 02:00:00 21.8 24 Sudeste 53 Este 0 1015.5 -0.6 64
2019-07-19 01:00:00 21.9 23 Este 54 Este 0 1016.2 0.6 63
2019-07-19 00:00:00 22.5 27 Este 67 Este 0 1016.3 0.5 56